Lincoln, Rhode Island
Current Conditions -  °F | °C
As of 3:53 AM on Sunday 23 Nov 2014 (Local Time) from KUUU Reporting Station
Broken Clouds Broken Clouds  
Wind Chill: 44°   Ceiling: 6000
Heat Index: 46°   Visibility: 10mi
Dew Point: 29°   Wind: 5mph
Humidity: 51%   Direction: NA
Pressure: 30.14"   Gusts: NA
Location:  41.54°N, 71.25°W
Report Text: KUUU 230853Z AUTO VRB04KT 10SM BKN060 BKN110 08/M02 A3014 RMK AO2 SLP206 T00781017 53004
Loading
Personal Weather Stations






























Interactive Weather Map New forecast layout! Learn more

10-Day Weather Forecast

Advertisements
Track Severe Weather on mobile